x

Apk - Aripeka, Fl (arpf1) Weather Station

7:54 - Tue 19th Mar 2019 All times are EDT. -4 hours from GMT.

  • Wind
    7mph, 10mph gusts
  • Ar Temp 68°f
  • Sea Pressure 1019.7mb
  • Apk - Aripeka, Fl
  • Apk - Aripeka, Fl

More Historic Weather Station data

Upgrade to MSW Pro to gain access to the past 30 days of data for over 8000 Wavebouys and Weather Stations around the globe.

Join

Comparision Forecast

View Surf forecast
   
Ter 03/19 7:54 7 10 mph 1019.7mb 68f
6:54 9 18 mph 1019.5mb 71f
5:54 7 10 mph 1019mb 71f
4:54 5 7 mph 1019.2mb 71f
3:54 7 14 mph 1019.7mb 70f
2:54 7 13 mph 1019.9mb 69f
1:54 9 15 mph 1020.6mb 66f
12:54 6 9 mph 1021.9mb 63f
11:54 3 6 mph 1022mb 60f
10:54 7 11 mph 1021.3mb 60f
9:54 3 6 mph 1021.4mb 59f
8:54 3 6 mph 1020.8mb 59f
7:54 6 8 mph 1019.9mb 59f
6:54 1 3 mph 1020.3mb 61f
5:54 6 8 mph 1019mb 61f
4:54 5 7 mph 1019.6mb 63f
3:54 5 7 mph 1019.3mb 63f
2:54 5 7 mph 1020mb 64f
1:54 6 8 mph 1020.9mb 64f
12:54 5 7 mph 1021.9mb 66f
Seg 03/18 11:54 6 8 mph 1021.8mb 67f
10:54 9 14 mph 1021.7mb 68f
9:54 10 16 mph 1020.5mb 69f
8:54 3 7 mph 1020.3mb 70f
7:54 3 8 mph 1019.8mb 78f
6:54 3 7 mph 1018.4mb 80f
5:54 7 13 mph 1017.8mb 81f
11:54 13 16 mph 1021.2mb 71f
10:54 9 14 mph 1021.2mb 69f
9:54 9 15 mph 1020.5mb 65f
8:54 7 9 mph 1020.1mb 61f
7:54 3 8 mph 1019.6mb 61f
6:54 8 11 mph 1019.1mb 61f
5:54 8 10 mph 1018.8mb 61f
4:54 5 10 mph 1018.9mb 62f
3:54 7 13 mph 1019.3mb 62f
2:54 6 8 mph 1019.6mb 63f
1:54 7 9 mph 1019.8mb 63f
12:54 8 15 mph 1020.2mb 64f
Dom 03/17 11:54 6 9 mph 1020.4mb 65f
10:54 9 11 mph 1020.1mb 66f
9:54 6 8 mph 1019.8mb 67f
8:54 6 9 mph 1019.7mb 67f
7:54 8 10 mph 1019.2mb 68f
6:54 8 11 mph 1018.6mb 70f
5:54 5 6 mph 1018mb 77f
3:54 9 14 mph 1017.7mb 72f
2:54 3 8 mph - -
12:54 9 14 mph 1020.5mb 71f
10:54 2 6 mph - -
9:54 5 8 mph 1020.9mb 67f
8:54 3 5 mph 1020.2mb 65f
7:54 5 7 mph 1019.8mb 65f
6:54 3 5 mph 1019.4mb 66f
5:54 3 6 mph 1019mb 67f
4:54 3 6 mph 1018.7mb 68f
3:54 7 9 mph 1019.1mb 66f
2:54 7 9 mph 1019.8mb 67f
1:54 7 10 mph 1019.9mb 69f
12:54 7 8 mph 1020mb 71f